Fairfax, Minnesota
Current Conditions -  °F | °C
As of 7:53 AM on Thursday 27 Nov 2014 (Local Time) from KRWF Reporting Station
Clear Clear  
Wind Chill: -9°   Ceiling: Unl
Heat Index: -9°   Visibility: 10mi
Dew Point: -13°   Wind: 3mph
Humidity: 83%   Direction: 340°NNW
Pressure: 30.51"   Gusts: NA
Location:  44.53°N, 94.72°W
Report Text: KRWF 271353Z AUTO 34003KT 10SM CLR M23/M25 A3051 RMK AO2 SLP362 T12281250
Loading
Personal Weather Stations






























Interactive Weather Map New forecast layout! Learn more

10-Day Weather Forecast

Advertisements
Track Severe Weather on mobile